sensor_id;sensor_type;location;lat;lon;timestamp;temperature;humidity
5041;DHT22;2539;52.568;13.364;2024-01-15T00:01:29;2.70;99.90
5041;DHT22;2539;52.568;13.364;2024-01-15T00:03:56;2.70;99.90
5041;DHT22;2539;52.568;13.364;2024-01-15T00:06:22;2.70;99.90
5041;DHT22;2539;52.568;13.364;2024-01-15T00:08:48;2.60;99.90
5041;DHT22;2539;52.568;13.364;2024-01-15T00:11:14;2.70;99.90
5041;DHT22;2539;52.568;13.364;2024-01-15T00:13:41;2.70;99.90
5041;DHT22;2539;52.568;13.364;2024-01-15T00:16:07;2.60;99.90
5041;DHT22;2539;52.568;13.364;2024-01-15T00:18:33;2.60;99.90
5041;DHT22;2539;52.568;13.364;2024-01-15T00:21:00;2.60;99.90
5041;DHT22;2539;52.568;13.364;2024-01-15T00:23:26;2.60;99.90
5041;DHT22;2539;52.568;13.364;2024-01-15T00:25:52;2.50;99.90
5041;DHT22;2539;52.568;13.364;2024-01-15T00:28:18;2.60;99.90
5041;DHT22;2539;52.568;13.364;2024-01-15T00:30:45;2.70;99.90
5041;DHT22;2539;52.568;13.364;2024-01-15T00:33:11;2.60;99.90
5041;DHT22;2539;52.568;13.364;2024-01-15T00:35:38;2.60;99.90
5041;DHT22;2539;52.568;13.364;2024-01-15T00:38:04;2.60;99.90
5041;DHT22;2539;52.568;13.364;2024-01-15T00:40:31;2.60;99.90
5041;DHT22;2539;52.568;13.364;2024-01-15T00:42:57;2.60;99.90
5041;DHT22;2539;52.568;13.364;2024-01-15T00:45:23;2.60;99.90
5041;DHT22;2539;52.568;13.364;2024-01-15T00:47:50;2.60;99.90
5041;DHT22;2539;52.568;13.364;2024-01-15T00:50:16;2.60;99.90
5041;DHT22;2539;52.568;13.364;2024-01-15T00:52:43;2.60;99.90
5041;DHT22;2539;52.568;13.364;2024-01-15T00:55:09;2.60;99.90
5041;DHT22;2539;52.568;13.364;2024-01-15T00:57:35;2.60;99.90
5041;DHT22;2539;52.568;13.364;2024-01-15T01:00:02;2.50;99.90
5041;DHT22;2539;52.568;13.364;2024-01-15T01:02:28;2.50;99.90
5041;DHT22;2539;52.568;13.364;2024-01-15T01:04:54;2.50;99.90
5041;DHT22;2539;52.568;13.364;2024-01-15T01:07:25;2.50;99.90
5041;DHT22;2539;52.568;13.364;2024-01-15T01:09:51;2.50;99.90
5041;DHT22;2539;52.568;13.364;2024-01-15T01:12:24;2.30;99.90
5041;DHT22;2539;52.568;13.364;2024-01-15T01:14:50;2.30;99.90
5041;DHT22;2539;52.568;13.364;2024-01-15T01:17:16;2.30;99.90
5041;DHT22;2539;52.568;13.364;2024-01-15T01:19:43;2.30;99.90
5041;DHT22;2539;52.568;13.364;2024-01-15T01:22:09;2.00;99.90
5041;DHT22;2539;52.568;13.364;2024-01-15T01:24:38;2.10;99.90
5041;DHT22;2539;52.568;13.364;2024-01-15T01:27:04;2.10;99.90
5041;DHT22;2539;52.568;13.364;2024-01-15T01:29:30;2.00;99.90
5041;DHT22;2539;52.568;13.364;2024-01-15T01:31:57;2.00;99.90
5041;DHT22;2539;52.568;13.364;2024-01-15T01:34:23;2.00;99.90
5041;DHT22;2539;52.568;13.364;2024-01-15T01:36:50;2.00;99.90
5041;DHT22;2539;52.568;13.364;2024-01-15T01:39:16;2.00;99.90
5041;DHT22;2539;52.568;13.364;2024-01-15T01:41:42;2.10;99.90
5041;DHT22;2539;52.568;13.364;2024-01-15T01:44:08;2.00;99.90
5041;DHT22;2539;52.568;13.364;2024-01-15T01:46:35;2.10;99.90
5041;DHT22;2539;52.568;13.364;2024-01-15T01:49:07;1.90;99.90
5041;DHT22;2539;52.568;13.364;2024-01-15T01:51:35;2.00;99.90
5041;DHT22;2539;52.568;13.364;2024-01-15T01:54:04;1.90;99.90
5041;DHT22;2539;52.568;13.364;2024-01-15T01:56:31;2.00;99.90
5041;DHT22;2539;52.568;13.364;2024-01-15T01:58:57;1.90;99.90
5041;DHT22;2539;52.568;13.364;2024-01-15T02:01:23;1.90;99.90
5041;DHT22;2539;52.568;13.364;2024-01-15T02:03:49;1.90;99.90
5041;DHT22;2539;52.568;13.364;2024-01-15T02:06:16;1.90;99.90
5041;DHT22;2539;52.568;13.364;2024-01-15T02:08:43;1.90;99.90
5041;DHT22;2539;52.568;13.364;2024-01-15T02:11:10;1.80;99.90
5041;DHT22;2539;52.568;13.364;2024-01-15T02:13:36;1.70;99.90
5041;DHT22;2539;52.568;13.364;2024-01-15T02:16:04;1.70;99.90
5041;DHT22;2539;52.568;13.364;2024-01-15T02:18:40;1.70;99.90
5041;DHT22;2539;52.568;13.364;2024-01-15T02:21:07;1.70;99.90
5041;DHT22;2539;52.568;13.364;2024-01-15T02:23:33;1.70;99.90
5041;DHT22;2539;52.568;13.364;2024-01-15T02:25:58;1.70;99.90
5041;DHT22;2539;52.568;13.364;2024-01-15T02:28:24;1.80;99.90
5041;DHT22;2539;52.568;13.364;2024-01-15T02:30:50;1.90;99.90
5041;DHT22;2539;52.568;13.364;2024-01-15T02:33:15;1.90;99.90
5041;DHT22;2539;52.568;13.364;2024-01-15T02:35:42;1.90;99.90
5041;DHT22;2539;52.568;13.364;2024-01-15T02:38:08;1.90;99.90
5041;DHT22;2539;52.568;13.364;2024-01-15T02:40:35;1.90;99.90
5041;DHT22;2539;52.568;13.364;2024-01-15T02:43:02;1.80;99.90
5041;DHT22;2539;52.568;13.364;2024-01-15T02:45:28;1.80;99.90
5041;DHT22;2539;52.568;13.364;2024-01-15T02:47:54;1.90;99.90
5041;DHT22;2539;52.568;13.364;2024-01-15T02:50:21;1.90;99.90
5041;DHT22;2539;52.568;13.364;2024-01-15T02:52:47;2.00;99.90
5041;DHT22;2539;52.568;13.364;2024-01-15T02:55:13;2.00;99.90
5041;DHT22;2539;52.568;13.364;2024-01-15T02:57:40;2.00;99.90
5041;DHT22;2539;52.568;13.364;2024-01-15T03:00:06;2.00;99.90
5041;DHT22;2539;52.568;13.364;2024-01-15T03:02:36;2.10;99.90
5041;DHT22;2539;52.568;13.364;2024-01-15T03:05:06;2.10;99.90
5041;DHT22;2539;52.568;13.364;2024-01-15T03:07:33;2.10;99.90
5041;DHT22;2539;52.568;13.364;2024-01-15T03:10:00;2.20;99.90
5041;DHT22;2539;52.568;13.364;2024-01-15T03:12:26;2.20;99.90
5041;DHT22;2539;52.568;13.364;2024-01-15T03:14:52;2.20;99.90
5041;DHT22;2539;52.568;13.364;2024-01-15T03:17:19;2.20;99.90
5041;DHT22;2539;52.568;13.364;2024-01-15T03:19:45;2.20;99.90
5041;DHT22;2539;52.568;13.364;2024-01-15T03:22:11;2.20;99.90
5041;DHT22;2539;52.568;13.364;2024-01-15T03:24:37;2.20;99.90
5041;DHT22;2539;52.568;13.364;2024-01-15T03:27:04;2.20;99.90
5041;DHT22;2539;52.568;13.364;2024-01-15T03:29:30;2.20;99.90
5041;DHT22;2539;52.568;13.364;2024-01-15T03:31:56;2.20;99.90
5041;DHT22;2539;52.568;13.364;2024-01-15T03:34:23;2.20;99.90
5041;DHT22;2539;52.568;13.364;2024-01-15T03:36:49;2.20;99.90
5041;DHT22;2539;52.568;13.364;2024-01-15T03:39:15;2.20;99.90
5041;DHT22;2539;52.568;13.364;2024-01-15T03:41:41;2.30;99.90
5041;DHT22;2539;52.568;13.364;2024-01-15T03:44:08;2.30;99.90
5041;DHT22;2539;52.568;13.364;2024-01-15T03:46:34;2.30;99.90
5041;DHT22;2539;52.568;13.364;2024-01-15T03:49:00;2.30;99.90
5041;DHT22;2539;52.568;13.364;2024-01-15T03:51:26;2.30;99.90
5041;DHT22;2539;52.568;13.364;2024-01-15T03:53:53;2.30;99.90
5041;DHT22;2539;52.568;13.364;2024-01-15T03:56:19;2.30;99.90
5041;DHT22;2539;52.568;13.364;2024-01-15T03:58:45;2.30;99.90
5041;DHT22;2539;52.568;13.364;2024-01-15T04:01:11;2.30;99.90
5041;DHT22;2539;52.568;13.364;2024-01-15T04:03:38;2.30;99.90
5041;DHT22;2539;52.568;13.364;2024-01-15T04:06:04;2.30;99.90
5041;DHT22;2539;52.568;13.364;2024-01-15T04:08:31;2.30;99.90
5041;DHT22;2539;52.568;13.364;2024-01-15T04:10:57;2.30;99.90
5041;DHT22;2539;52.568;13.364;2024-01-15T04:13:23;2.30;99.90
5041;DHT22;2539;52.568;13.364;2024-01-15T04:15:49;2.30;99.90
5041;DHT22;2539;52.568;13.364;2024-01-15T04:18:16;2.30;99.90
5041;DHT22;2539;52.568;13.364;2024-01-15T04:20:43;2.30;99.90
5041;DHT22;2539;52.568;13.364;2024-01-15T04:23:10;2.40;99.90
5041;DHT22;2539;52.568;13.364;2024-01-15T04:25:36;2.40;99.90
5041;DHT22;2539;52.568;13.364;2024-01-15T04:28:02;2.30;99.90
5041;DHT22;2539;52.568;13.364;2024-01-15T04:30:29;2.30;99.90
5041;DHT22;2539;52.568;13.364;2024-01-15T04:32:55;2.30;99.90
5041;DHT22;2539;52.568;13.364;2024-01-15T04:35:21;2.30;99.90
5041;DHT22;2539;52.568;13.364;2024-01-15T04:37:47;2.30;99.90
5041;DHT22;2539;52.568;13.364;2024-01-15T04:40:14;2.30;99.90
5041;DHT22;2539;52.568;13.364;2024-01-15T04:42:40;2.30;99.90
5041;DHT22;2539;52.568;13.364;2024-01-15T04:45:07;2.30;99.90
5041;DHT22;2539;52.568;13.364;2024-01-15T04:47:33;2.30;99.90
5041;DHT22;2539;52.568;13.364;2024-01-15T04:49:59;2.30;99.90
5041;DHT22;2539;52.568;13.364;2024-01-15T04:52:26;2.30;99.90
5041;DHT22;2539;52.568;13.364;2024-01-15T04:54:52;2.30;99.90
5041;DHT22;2539;52.568;13.364;2024-01-15T04:57:18;2.40;99.90
5041;DHT22;2539;52.568;13.364;2024-01-15T04:59:44;2.40;99.90
5041;DHT22;2539;52.568;13.364;2024-01-15T05:02:10;2.40;99.90
5041;DHT22;2539;52.568;13.364;2024-01-15T05:04:37;2.50;99.90
5041;DHT22;2539;52.568;13.364;2024-01-15T05:07:03;2.40;99.90
5041;DHT22;2539;52.568;13.364;2024-01-15T05:09:29;2.40;99.90
5041;DHT22;2539;52.568;13.364;2024-01-15T05:11:56;2.40;99.90
5041;DHT22;2539;52.568;13.364;2024-01-15T05:14:22;2.40;99.90
5041;DHT22;2539;52.568;13.364;2024-01-15T05:16:49;2.40;99.90
5041;DHT22;2539;52.568;13.364;2024-01-15T05:19:15;2.40;99.90
5041;DHT22;2539;52.568;13.364;2024-01-15T05:21:42;2.40;99.90
5041;DHT22;2539;52.568;13.364;2024-01-15T05:24:08;2.40;99.90
5041;DHT22;2539;52.568;13.364;2024-01-15T05:26:34;2.40;99.90
5041;DHT22;2539;52.568;13.364;2024-01-15T05:29:01;2.40;99.90
5041;DHT22;2539;52.568;13.364;2024-01-15T05:31:27;2.40;99.90
5041;DHT22;2539;52.568;13.364;2024-01-15T05:33:53;2.30;99.90
5041;DHT22;2539;52.568;13.364;2024-01-15T05:36:19;2.30;99.90
5041;DHT22;2539;52.568;13.364;2024-01-15T05:38:46;2.30;99.90
5041;DHT22;2539;52.568;13.364;2024-01-15T05:41:12;2.30;99.90
5041;DHT22;2539;52.568;13.364;2024-01-15T05:43:39;2.40;99.90
5041;DHT22;2539;52.568;13.364;2024-01-15T05:46:05;2.40;99.90
5041;DHT22;2539;52.568;13.364;2024-01-15T05:48:31;2.50;99.90
5041;DHT22;2539;52.568;13.364;2024-01-15T05:50:57;2.50;99.90
5041;DHT22;2539;52.568;13.364;2024-01-15T05:53:24;2.50;99.90
5041;DHT22;2539;52.568;13.364;2024-01-15T05:55:50;2.50;99.90
5041;DHT22;2539;52.568;13.364;2024-01-15T05:58:16;2.50;99.90
5041;DHT22;2539;52.568;13.364;2024-01-15T06:00:42;2.50;99.90
5041;DHT22;2539;52.568;13.364;2024-01-15T06:03:09;2.50;99.90
5041;DHT22;2539;52.568;13.364;2024-01-15T06:05:35;2.50;99.90
5041;DHT22;2539;52.568;13.364;2024-01-15T06:08:01;2.50;99.90
5041;DHT22;2539;52.568;13.364;2024-01-15T06:10:28;2.50;99.90
5041;DHT22;2539;52.568;13.364;2024-01-15T06:12:54;2.50;99.90
5041;DHT22;2539;52.568;13.364;2024-01-15T06:15:21;2.50;99.90
5041;DHT22;2539;52.568;13.364;2024-01-15T06:17:47;2.40;99.90
5041;DHT22;2539;52.568;13.364;2024-01-15T06:20:13;2.50;99.90
5041;DHT22;2539;52.568;13.364;2024-01-15T06:22:39;2.50;99.90
5041;DHT22;2539;52.568;13.364;2024-01-15T06:25:07;2.50;99.90
5041;DHT22;2539;52.568;13.364;2024-01-15T06:27:34;2.50;99.90
5041;DHT22;2539;52.568;13.364;2024-01-15T06:30:01;2.50;99.90
5041;DHT22;2539;52.568;13.364;2024-01-15T06:32:28;2.60;99.90
5041;DHT22;2539;52.568;13.364;2024-01-15T06:34:54;2.60;99.90
5041;DHT22;2539;52.568;13.364;2024-01-15T06:37:20;2.60;99.90
5041;DHT22;2539;52.568;13.364;2024-01-15T06:39:46;2.60;99.90
5041;DHT22;2539;52.568;13.364;2024-01-15T06:42:13;2.50;99.90
5041;DHT22;2539;52.568;13.364;2024-01-15T06:44:39;2.50;99.90
5041;DHT22;2539;52.568;13.364;2024-01-15T06:47:05;2.60;99.90
5041;DHT22;2539;52.568;13.364;2024-01-15T06:49:31;2.50;99.90
5041;DHT22;2539;52.568;13.364;2024-01-15T06:51:58;2.50;99.90
5041;DHT22;2539;52.568;13.364;2024-01-15T06:54:23;2.50;99.90
5041;DHT22;2539;52.568;13.364;2024-01-15T06:56:49;2.50;99.90
5041;DHT22;2539;52.568;13.364;2024-01-15T06:59:15;2.60;99.90
5041;DHT22;2539;52.568;13.364;2024-01-15T07:01:41;2.60;99.90
5041;DHT22;2539;52.568;13.364;2024-01-15T07:04:07;2.50;99.90
5041;DHT22;2539;52.568;13.364;2024-01-15T07:06:34;2.50;99.90
5041;DHT22;2539;52.568;13.364;2024-01-15T07:09:00;2.50;99.90
5041;DHT22;2539;52.568;13.364;2024-01-15T07:11:28;2.50;99.90
5041;DHT22;2539;52.568;13.364;2024-01-15T07:13:55;2.50;99.90
5041;DHT22;2539;52.568;13.364;2024-01-15T07:16:21;2.50;99.90
5041;DHT22;2539;52.568;13.364;2024-01-15T07:18:47;2.50;99.90
5041;DHT22;2539;52.568;13.364;2024-01-15T07:21:13;2.60;99.90
5041;DHT22;2539;52.568;13.364;2024-01-15T07:23:40;2.50;99.90
5041;DHT22;2539;52.568;13.364;2024-01-15T07:26:06;2.50;99.90
5041;DHT22;2539;52.568;13.364;2024-01-15T07:28:33;2.50;99.90
5041;DHT22;2539;52.568;13.364;2024-01-15T07:30:59;2.50;99.90
5041;DHT22;2539;52.568;13.364;2024-01-15T07:33:27;2.50;99.90
5041;DHT22;2539;52.568;13.364;2024-01-15T07:35:53;2.60;99.90
5041;DHT22;2539;52.568;13.364;2024-01-15T07:38:20;2.60;99.90
5041;DHT22;2539;52.568;13.364;2024-01-15T07:40:46;2.60;99.90
5041;DHT22;2539;52.568;13.364;2024-01-15T07:43:15;2.60;99.90
5041;DHT22;2539;52.568;13.364;2024-01-15T07:45:41;2.70;99.90
5041;DHT22;2539;52.568;13.364;2024-01-15T07:48:07;2.70;99.90
5041;DHT22;2539;52.568;13.364;2024-01-15T07:50:34;2.70;99.90
5041;DHT22;2539;52.568;13.364;2024-01-15T07:53:00;2.70;99.90
5041;DHT22;2539;52.568;13.364;2024-01-15T07:55:26;2.60;99.90
5041;DHT22;2539;52.568;13.364;2024-01-15T07:57:52;2.60;99.90
5041;DHT22;2539;52.568;13.364;2024-01-15T08:00:19;2.60;99.90
5041;DHT22;2539;52.568;13.364;2024-01-15T08:02:45;2.70;99.90
5041;DHT22;2539;52.568;13.364;2024-01-15T08:05:12;2.70;99.90
5041;DHT22;2539;52.568;13.364;2024-01-15T08:07:38;2.70;99.90
5041;DHT22;2539;52.568;13.364;2024-01-15T08:10:05;2.70;99.90
5041;DHT22;2539;52.568;13.364;2024-01-15T08:12:31;2.80;99.90
5041;DHT22;2539;52.568;13.364;2024-01-15T08:14:57;2.80;99.90
5041;DHT22;2539;52.568;13.364;2024-01-15T08:17:24;2.80;99.90
5041;DHT22;2539;52.568;13.364;2024-01-15T08:19:54;2.80;99.90
5041;DHT22;2539;52.568;13.364;2024-01-15T08:22:21;2.90;99.90
5041;DHT22;2539;52.568;13.364;2024-01-15T08:24:53;2.90;99.90
5041;DHT22;2539;52.568;13.364;2024-01-15T08:27:21;2.90;99.90
5041;DHT22;2539;52.568;13.364;2024-01-15T08:29:47;2.90;99.90
5041;DHT22;2539;52.568;13.364;2024-01-15T08:32:13;2.90;99.90
5041;DHT22;2539;52.568;13.364;2024-01-15T08:34:41;2.90;99.90
5041;DHT22;2539;52.568;13.364;2024-01-15T08:37:08;3.00;99.90
5041;DHT22;2539;52.568;13.364;2024-01-15T08:39:35;2.80;99.90
5041;DHT22;2539;52.568;13.364;2024-01-15T08:42:05;2.80;99.90
5041;DHT22;2539;52.568;13.364;2024-01-15T08:44:31;2.90;99.90
5041;DHT22;2539;52.568;13.364;2024-01-15T08:46:58;2.90;99.90
5041;DHT22;2539;52.568;13.364;2024-01-15T08:49:24;2.80;99.90
5041;DHT22;2539;52.568;13.364;2024-01-15T08:51:50;2.80;99.90
5041;DHT22;2539;52.568;13.364;2024-01-15T08:54:16;2.90;99.90
5041;DHT22;2539;52.568;13.364;2024-01-15T08:56:44;2.90;99.90
5041;DHT22;2539;52.568;13.364;2024-01-15T08:59:10;2.90;99.90
5041;DHT22;2539;52.568;13.364;2024-01-15T09:01:38;2.90;99.90
5041;DHT22;2539;52.568;13.364;2024-01-15T09:04:04;3.00;99.90
5041;DHT22;2539;52.568;13.364;2024-01-15T09:06:30;3.10;99.90
5041;DHT22;2539;52.568;13.364;2024-01-15T09:08:57;3.10;99.90
5041;DHT22;2539;52.568;13.364;2024-01-15T09:11:23;3.00;99.90
5041;DHT22;2539;52.568;13.364;2024-01-15T09:13:49;2.90;99.90
5041;DHT22;2539;52.568;13.364;2024-01-15T09:16:16;2.90;99.90
5041;DHT22;2539;52.568;13.364;2024-01-15T09:18:42;2.90;99.90
5041;DHT22;2539;52.568;13.364;2024-01-15T09:21:08;2.90;99.90
5041;DHT22;2539;52.568;13.364;2024-01-15T09:23:34;2.90;99.90
5041;DHT22;2539;52.568;13.364;2024-01-15T09:26:01;2.90;99.90
5041;DHT22;2539;52.568;13.364;2024-01-15T09:28:27;2.90;99.90
5041;DHT22;2539;52.568;13.364;2024-01-15T09:30:53;2.90;99.90
5041;DHT22;2539;52.568;13.364;2024-01-15T09:33:20;3.00;99.90
5041;DHT22;2539;52.568;13.364;2024-01-15T09:35:47;3.00;99.90
5041;DHT22;2539;52.568;13.364;2024-01-15T09:38:13;3.10;99.90
5041;DHT22;2539;52.568;13.364;2024-01-15T09:40:38;3.20;99.90
5041;DHT22;2539;52.568;13.364;2024-01-15T09:43:08;3.40;99.90
5041;DHT22;2539;52.568;13.364;2024-01-15T09:45:34;3.40;99.90
5041;DHT22;2539;52.568;13.364;2024-01-15T09:48:00;3.40;99.90
5041;DHT22;2539;52.568;13.364;2024-01-15T09:50:27;3.60;99.90
5041;DHT22;2539;52.568;13.364;2024-01-15T09:52:54;3.50;99.90
5041;DHT22;2539;52.568;13.364;2024-01-15T09:55:23;3.50;99.90
5041;DHT22;2539;52.568;13.364;2024-01-15T09:57:50;3.50;99.90
5041;DHT22;2539;52.568;13.364;2024-01-15T10:00:19;3.70;99.90
5041;DHT22;2539;52.568;13.364;2024-01-15T10:02:45;3.70;99.90
5041;DHT22;2539;52.568;13.364;2024-01-15T10:05:11;3.70;99.90
5041;DHT22;2539;52.568;13.364;2024-01-15T10:07:37;3.90;99.90
5041;DHT22;2539;52.568;13.364;2024-01-15T10:10:04;4.00;99.90
5041;DHT22;2539;52.568;13.364;2024-01-15T10:12:32;3.90;99.90
5041;DHT22;2539;52.568;13.364;2024-01-15T10:14:58;3.90;99.90
5041;DHT22;2539;52.568;13.364;2024-01-15T10:17:25;3.80;99.90
5041;DHT22;2539;52.568;13.364;2024-01-15T10:19:53;3.90;99.90
5041;DHT22;2539;52.568;13.364;2024-01-15T10:22:20;3.70;99.90
5041;DHT22;2539;52.568;13.364;2024-01-15T10:24:46;3.60;99.90
5041;DHT22;2539;52.568;13.364;2024-01-15T10:27:15;3.70;99.90
5041;DHT22;2539;52.568;13.364;2024-01-15T10:29:42;3.90;99.90
5041;DHT22;2539;52.568;13.364;2024-01-15T10:32:08;4.00;99.90
5041;DHT22;2539;52.568;13.364;2024-01-15T10:34:39;3.90;99.90
5041;DHT22;2539;52.568;13.364;2024-01-15T10:37:09;3.60;99.90
5041;DHT22;2539;52.568;13.364;2024-01-15T10:39:36;3.50;99.90
5041;DHT22;2539;52.568;13.364;2024-01-15T10:42:03;3.40;99.90
5041;DHT22;2539;52.568;13.364;2024-01-15T10:44:29;3.30;99.90
5041;DHT22;2539;52.568;13.364;2024-01-15T10:46:56;3.30;99.90
5041;DHT22;2539;52.568;13.364;2024-01-15T10:49:23;3.30;99.90
5041;DHT22;2539;52.568;13.364;2024-01-15T10:51:53;3.30;99.90
5041;DHT22;2539;52.568;13.364;2024-01-15T10:54:20;3.30;99.90
5041;DHT22;2539;52.568;13.364;2024-01-15T10:56:47;3.30;99.90
5041;DHT22;2539;52.568;13.364;2024-01-15T10:59:13;3.50;99.90
5041;DHT22;2539;52.568;13.364;2024-01-15T11:01:42;3.50;99.90
5041;DHT22;2539;52.568;13.364;2024-01-15T11:04:08;3.40;99.90
5041;DHT22;2539;52.568;13.364;2024-01-15T11:06:55;3.40;99.90
5041;DHT22;2539;52.568;13.364;2024-01-15T11:09:22;3.40;99.90
5041;DHT22;2539;52.568;13.364;2024-01-15T11:11:52;3.50;99.90
5041;DHT22;2539;52.568;13.364;2024-01-15T11:14:47;3.40;99.90
5041;DHT22;2539;52.568;13.364;2024-01-15T11:17:14;3.30;99.90
5041;DHT22;2539;52.568;13.364;2024-01-15T11:19:50;3.30;99.90
5041;DHT22;2539;52.568;13.364;2024-01-15T11:25:13;3.50;99.90
5041;DHT22;2539;52.568;13.364;2024-01-15T11:27:41;3.50;99.90
5041;DHT22;2539;52.568;13.364;2024-01-15T11:30:09;3.60;99.90
5041;DHT22;2539;52.568;13.364;2024-01-15T11:32:36;3.80;99.90
5041;DHT22;2539;52.568;13.364;2024-01-15T11:35:03;3.90;99.90
5041;DHT22;2539;52.568;13.364;2024-01-15T11:40:37;3.60;99.90
5041;DHT22;2539;52.568;13.364;2024-01-15T11:43:05;3.70;99.90
5041;DHT22;2539;52.568;13.364;2024-01-15T11:45:32;3.50;99.90
5041;DHT22;2539;52.568;13.364;2024-01-15T11:48:14;3.50;99.90
5041;DHT22;2539;52.568;13.364;2024-01-15T11:50:42;3.20;99.90
5041;DHT22;2539;52.568;13.364;2024-01-15T11:53:32;3.00;99.90
5041;DHT22;2539;52.568;13.364;2024-01-15T11:56:02;2.70;99.90
5041;DHT22;2539;52.568;13.364;2024-01-15T11:58:28;2.50;99.90
5041;DHT22;2539;52.568;13.364;2024-01-15T12:00:55;2.50;99.90
5041;DHT22;2539;52.568;13.364;2024-01-15T12:03:23;2.40;99.90
5041;DHT22;2539;52.568;13.364;2024-01-15T12:05:49;2.50;99.90
5041;DHT22;2539;52.568;13.364;2024-01-15T12:08:23;2.50;99.90
5041;DHT22;2539;52.568;13.364;2024-01-15T12:10:50;2.40;99.90
5041;DHT22;2539;52.568;13.364;2024-01-15T12:13:17;2.50;99.90
5041;DHT22;2539;52.568;13.364;2024-01-15T12:15:45;2.50;99.90
5041;DHT22;2539;52.568;13.364;2024-01-15T12:18:14;2.50;99.90
5041;DHT22;2539;52.568;13.364;2024-01-15T12:20:41;2.50;99.90
5041;DHT22;2539;52.568;13.364;2024-01-15T12:23:08;2.50;99.90
5041;DHT22;2539;52.568;13.364;2024-01-15T12:25:36;2.50;99.90
5041;DHT22;2539;52.568;13.364;2024-01-15T12:28:03;2.60;99.90
5041;DHT22;2539;52.568;13.364;2024-01-15T12:30:30;2.60;99.90
5041;DHT22;2539;52.568;13.364;2024-01-15T12:33:01;2.60;99.90
5041;DHT22;2539;52.568;13.364;2024-01-15T12:35:30;2.50;99.90
5041;DHT22;2539;52.568;13.364;2024-01-15T12:37:56;2.50;99.90
5041;DHT22;2539;52.568;13.364;2024-01-15T12:40:23;2.50;99.90
5041;DHT22;2539;52.568;13.364;2024-01-15T12:42:49;2.50;99.90
5041;DHT22;2539;52.568;13.364;2024-01-15T12:45:16;2.40;99.90
5041;DHT22;2539;52.568;13.364;2024-01-15T12:47:43;2.30;99.90
5041;DHT22;2539;52.568;13.364;2024-01-15T12:50:11;2.20;99.90
5041;DHT22;2539;52.568;13.364;2024-01-15T12:52:40;2.20;99.90
5041;DHT22;2539;52.568;13.364;2024-01-15T12:55:07;2.20;99.90
5041;DHT22;2539;52.568;13.364;2024-01-15T12:57:37;2.20;99.90
5041;DHT22;2539;52.568;13.364;2024-01-15T13:00:04;2.20;99.90
5041;DHT22;2539;52.568;13.364;2024-01-15T13:02:41;2.30;99.90
5041;DHT22;2539;52.568;13.364;2024-01-15T13:05:11;2.30;99.90
5041;DHT22;2539;52.568;13.364;2024-01-15T13:07:37;2.40;99.90
5041;DHT22;2539;52.568;13.364;2024-01-15T13:10:05;2.40;99.90
5041;DHT22;2539;52.568;13.364;2024-01-15T13:12:33;2.50;99.90
5041;DHT22;2539;52.568;13.364;2024-01-15T13:14:59;2.50;99.90
5041;DHT22;2539;52.568;13.364;2024-01-15T13:17:25;2.50;99.90
5041;DHT22;2539;52.568;13.364;2024-01-15T13:19:52;2.40;99.90
5041;DHT22;2539;52.568;13.364;2024-01-15T13:22:18;2.50;99.90
5041;DHT22;2539;52.568;13.364;2024-01-15T13:24:44;2.40;99.90
5041;DHT22;2539;52.568;13.364;2024-01-15T13:27:10;2.40;99.90
5041;DHT22;2539;52.568;13.364;2024-01-15T13:29:37;2.40;99.90
5041;DHT22;2539;52.568;13.364;2024-01-15T13:32:04;2.50;99.90
5041;DHT22;2539;52.568;13.364;2024-01-15T13:34:31;2.50;99.90
5041;DHT22;2539;52.568;13.364;2024-01-15T13:36:57;2.40;99.90
5041;DHT22;2539;52.568;13.364;2024-01-15T13:39:23;2.40;99.90
5041;DHT22;2539;52.568;13.364;2024-01-15T13:41:49;2.50;99.90
5041;DHT22;2539;52.568;13.364;2024-01-15T13:44:16;2.50;99.90
5041;DHT22;2539;52.568;13.364;2024-01-15T13:46:42;2.40;99.90
5041;DHT22;2539;52.568;13.364;2024-01-15T13:49:08;2.40;99.90
5041;DHT22;2539;52.568;13.364;2024-01-15T13:51:37;2.40;99.90
5041;DHT22;2539;52.568;13.364;2024-01-15T13:54:03;2.40;99.90
5041;DHT22;2539;52.568;13.364;2024-01-15T13:56:33;2.50;99.90
5041;DHT22;2539;52.568;13.364;2024-01-15T13:59:01;2.50;99.90
5041;DHT22;2539;52.568;13.364;2024-01-15T14:01:28;2.50;99.90
5041;DHT22;2539;52.568;13.364;2024-01-15T14:03:54;2.50;99.90
5041;DHT22;2539;52.568;13.364;2024-01-15T14:06:20;2.50;99.90
5041;DHT22;2539;52.568;13.364;2024-01-15T14:08:47;2.40;99.90
5041;DHT22;2539;52.568;13.364;2024-01-15T14:11:13;2.40;99.90
5041;DHT22;2539;52.568;13.364;2024-01-15T14:13:39;2.40;99.90
5041;DHT22;2539;52.568;13.364;2024-01-15T14:16:05;2.40;99.90
5041;DHT22;2539;52.568;13.364;2024-01-15T14:18:32;2.40;99.90
5041;DHT22;2539;52.568;13.364;2024-01-15T14:20:59;2.40;99.90
5041;DHT22;2539;52.568;13.364;2024-01-15T14:23:25;2.40;99.90
5041;DHT22;2539;52.568;13.364;2024-01-15T14:25:51;2.40;99.90
5041;DHT22;2539;52.568;13.364;2024-01-15T14:28:17;2.40;99.90
5041;DHT22;2539;52.568;13.364;2024-01-15T14:30:44;2.40;99.90
5041;DHT22;2539;52.568;13.364;2024-01-15T14:33:10;2.40;99.90
5041;DHT22;2539;52.568;13.364;2024-01-15T14:35:37;2.40;99.90
5041;DHT22;2539;52.568;13.364;2024-01-15T14:38:03;2.40;99.90
5041;DHT22;2539;52.568;13.364;2024-01-15T14:40:29;2.30;99.90
5041;DHT22;2539;52.568;13.364;2024-01-15T14:42:55;2.30;99.90
5041;DHT22;2539;52.568;13.364;2024-01-15T14:45:22;2.30;99.90
5041;DHT22;2539;52.568;13.364;2024-01-15T14:47:48;2.30;99.90
5041;DHT22;2539;52.568;13.364;2024-01-15T14:50:14;2.30;99.90
5041;DHT22;2539;52.568;13.364;2024-01-15T14:52:41;2.30;99.90
5041;DHT22;2539;52.568;13.364;2024-01-15T14:55:08;2.30;99.90
5041;DHT22;2539;52.568;13.364;2024-01-15T14:57:35;2.30;99.90
5041;DHT22;2539;52.568;13.364;2024-01-15T15:00:04;2.20;99.90
5041;DHT22;2539;52.568;13.364;2024-01-15T15:02:34;2.30;99.90
5041;DHT22;2539;52.568;13.364;2024-01-15T15:05:01;2.20;99.90
5041;DHT22;2539;52.568;13.364;2024-01-15T15:07:27;2.20;99.90
5041;DHT22;2539;52.568;13.364;2024-01-15T15:09:54;2.20;99.90
5041;DHT22;2539;52.568;13.364;2024-01-15T15:12:20;2.20;99.90
5041;DHT22;2539;52.568;13.364;2024-01-15T15:14:47;2.10;99.90
5041;DHT22;2539;52.568;13.364;2024-01-15T15:17:13;2.10;99.90
5041;DHT22;2539;52.568;13.364;2024-01-15T15:19:39;2.00;99.90
5041;DHT22;2539;52.568;13.364;2024-01-15T15:22:07;2.00;99.90
5041;DHT22;2539;52.568;13.364;2024-01-15T15:24:37;2.00;99.90
5041;DHT22;2539;52.568;13.364;2024-01-15T15:27:04;2.00;99.90
5041;DHT22;2539;52.568;13.364;2024-01-15T15:29:33;1.90;99.90
5041;DHT22;2539;52.568;13.364;2024-01-15T15:32:01;2.00;99.90
5041;DHT22;2539;52.568;13.364;2024-01-15T15:34:28;2.00;99.90
5041;DHT22;2539;52.568;13.364;2024-01-15T15:36:54;1.90;99.90
5041;DHT22;2539;52.568;13.364;2024-01-15T15:39:21;1.90;99.90
5041;DHT22;2539;52.568;13.364;2024-01-15T15:41:47;1.90;99.90
5041;DHT22;2539;52.568;13.364;2024-01-15T15:44:15;1.90;99.90
5041;DHT22;2539;52.568;13.364;2024-01-15T15:46:43;1.90;99.90
5041;DHT22;2539;52.568;13.364;2024-01-15T15:49:09;1.80;99.90
5041;DHT22;2539;52.568;13.364;2024-01-15T15:51:35;1.80;99.90
5041;DHT22;2539;52.568;13.364;2024-01-15T15:54:01;1.80;99.90
5041;DHT22;2539;52.568;13.364;2024-01-15T15:56:27;1.80;99.90
5041;DHT22;2539;52.568;13.364;2024-01-15T15:58:53;1.80;99.90
5041;DHT22;2539;52.568;13.364;2024-01-15T16:01:20;1.70;99.90
5041;DHT22;2539;52.568;13.364;2024-01-15T16:03:46;1.70;99.90
5041;DHT22;2539;52.568;13.364;2024-01-15T16:06:12;1.70;99.90